sensor_id;sensor_type;location;lat;lon;timestamp;P1;durP1;ratioP1;P2;durP2;ratioP2
57443;SDS011;43289;52.962;6.196;2023-03-23T00:01:25;14.95;;;9.50;;
57443;SDS011;43289;52.962;6.196;2023-03-23T00:04:05;13.05;;;9.60;;
57443;SDS011;43289;52.962;6.196;2023-03-23T00:06:41;11.38;;;8.13;;
57443;SDS011;43289;52.962;6.196;2023-03-23T00:09:10;14.45;;;10.27;;
57443;SDS011;43289;52.962;6.196;2023-03-23T00:11:36;13.50;;;9.65;;
57443;SDS011;43289;52.962;6.196;2023-03-23T00:14:04;11.30;;;9.05;;
57443;SDS011;43289;52.962;6.196;2023-03-23T00:16:31;15.38;;;8.65;;
57443;SDS011;43289;52.962;6.196;2023-03-23T00:18:59;12.57;;;7.75;;
57443;SDS011;43289;52.962;6.196;2023-03-23T00:21:27;10.43;;;8.07;;
57443;SDS011;43289;52.962;6.196;2023-03-23T00:24:07;13.00;;;7.97;;
57443;SDS011;43289;52.962;6.196;2023-03-23T00:26:34;9.70;;;5.53;;
57443;SDS011;43289;52.962;6.196;2023-03-23T00:29:01;16.30;;;10.07;;
57443;SDS011;43289;52.962;6.196;2023-03-23T00:31:28;16.17;;;8.45;;
57443;SDS011;43289;52.962;6.196;2023-03-23T00:34:02;15.23;;;8.77;;
57443;SDS011;43289;52.962;6.196;2023-03-23T00:36:29;9.93;;;7.63;;
57443;SDS011;43289;52.962;6.196;2023-03-23T00:38:55;12.50;;;8.63;;
57443;SDS011;43289;52.962;6.196;2023-03-23T00:41:26;10.27;;;7.22;;
57443;SDS011;43289;52.962;6.196;2023-03-23T00:43:56;9.48;;;5.80;;
57443;SDS011;43289;52.962;6.196;2023-03-23T00:46:23;9.30;;;5.90;;
57443;SDS011;43289;52.962;6.196;2023-03-23T00:48:49;8.32;;;5.90;;
57443;SDS011;43289;52.962;6.196;2023-03-23T00:51:19;9.13;;;5.80;;
57443;SDS011;43289;52.962;6.196;2023-03-23T00:53:45;10.00;;;5.88;;
57443;SDS011;43289;52.962;6.196;2023-03-23T00:56:12;8.32;;;5.97;;
57443;SDS011;43289;52.962;6.196;2023-03-23T00:58:38;9.77;;;6.03;;
57443;SDS011;43289;52.962;6.196;2023-03-23T01:01:04;10.18;;;6.70;;
57443;SDS011;43289;52.962;6.196;2023-03-23T01:03:30;11.98;;;7.60;;
57443;SDS011;43289;52.962;6.196;2023-03-23T01:05:56;13.38;;;6.95;;
57443;SDS011;43289;52.962;6.196;2023-03-23T01:08:23;12.27;;;7.93;;
57443;SDS011;43289;52.962;6.196;2023-03-23T01:10:49;15.60;;;8.13;;
57443;SDS011;43289;52.962;6.196;2023-03-23T01:13:16;10.73;;;7.00;;
57443;SDS011;43289;52.962;6.196;2023-03-23T01:15:42;11.93;;;7.13;;
57443;SDS011;43289;52.962;6.196;2023-03-23T01:18:09;13.35;;;7.32;;
57443;SDS011;43289;52.962;6.196;2023-03-23T01:20:35;13.80;;;6.70;;
57443;SDS011;43289;52.962;6.196;2023-03-23T01:23:02;12.05;;;6.47;;
57443;SDS011;43289;52.962;6.196;2023-03-23T01:25:34;10.15;;;6.65;;
57443;SDS011;43289;52.962;6.196;2023-03-23T01:28:01;9.25;;;6.45;;
57443;SDS011;43289;52.962;6.196;2023-03-23T01:30:27;10.32;;;6.13;;
57443;SDS011;43289;52.962;6.196;2023-03-23T01:32:54;9.02;;;5.78;;
57443;SDS011;43289;52.962;6.196;2023-03-23T01:35:20;13.30;;;6.30;;
57443;SDS011;43289;52.962;6.196;2023-03-23T01:37:47;9.95;;;5.60;;
57443;SDS011;43289;52.962;6.196;2023-03-23T01:40:13;11.85;;;6.07;;
57443;SDS011;43289;52.962;6.196;2023-03-23T01:42:39;9.60;;;5.80;;
57443;SDS011;43289;52.962;6.196;2023-03-23T01:47:43;8.70;;;5.45;;
57443;SDS011;43289;52.962;6.196;2023-03-23T01:50:09;8.77;;;5.53;;
57443;SDS011;43289;52.962;6.196;2023-03-23T01:52:35;12.73;;;5.30;;
57443;SDS011;43289;52.962;6.196;2023-03-23T01:55:02;11.18;;;6.05;;
57443;SDS011;43289;52.962;6.196;2023-03-23T01:57:28;10.30;;;5.80;;
57443;SDS011;43289;52.962;6.196;2023-03-23T01:59:56;10.18;;;5.32;;
57443;SDS011;43289;52.962;6.196;2023-03-23T02:02:24;8.38;;;5.05;;
57443;SDS011;43289;52.962;6.196;2023-03-23T02:04:51;11.20;;;5.28;;
57443;SDS011;43289;52.962;6.196;2023-03-23T02:07:19;10.23;;;5.40;;
57443;SDS011;43289;52.962;6.196;2023-03-23T02:09:46;8.20;;;5.03;;
57443;SDS011;43289;52.962;6.196;2023-03-23T02:12:13;7.63;;;4.70;;
57443;SDS011;43289;52.962;6.196;2023-03-23T02:14:39;11.93;;;5.45;;
57443;SDS011;43289;52.962;6.196;2023-03-23T02:19:55;9.73;;;5.35;;
57443;SDS011;43289;52.962;6.196;2023-03-23T02:32:57;8.27;;;4.82;;
57443;SDS011;43289;52.962;6.196;2023-03-23T02:35:28;10.25;;;4.68;;
57443;SDS011;43289;52.962;6.196;2023-03-23T02:40:41;9.43;;;4.68;;
57443;SDS011;43289;52.962;6.196;2023-03-23T02:43:09;11.73;;;4.80;;
57443;SDS011;43289;52.962;6.196;2023-03-23T02:45:36;7.65;;;4.18;;
57443;SDS011;43289;52.962;6.196;2023-03-23T02:48:03;11.20;;;4.40;;
57443;SDS011;43289;52.962;6.196;2023-03-23T02:50:30;9.65;;;4.57;;
57443;SDS011;43289;52.962;6.196;2023-03-23T02:52:57;7.43;;;4.43;;
57443;SDS011;43289;52.962;6.196;2023-03-23T02:55:24;8.80;;;4.38;;
57443;SDS011;43289;52.962;6.196;2023-03-23T02:57:51;9.15;;;4.53;;
57443;SDS011;43289;52.962;6.196;2023-03-23T03:00:18;9.48;;;4.10;;
57443;SDS011;43289;52.962;6.196;2023-03-23T03:02:54;9.80;;;4.28;;
57443;SDS011;43289;52.962;6.196;2023-03-23T03:08:10;9.23;;;3.78;;
57443;SDS011;43289;52.962;6.196;2023-03-23T03:10:52;6.53;;;3.88;;
57443;SDS011;43289;52.962;6.196;2023-03-23T03:15:59;6.65;;;3.88;;
57443;SDS011;43289;52.962;6.196;2023-03-23T03:21:11;8.60;;;4.38;;
57443;SDS011;43289;52.962;6.196;2023-03-23T03:23:40;6.53;;;3.92;;
57443;SDS011;43289;52.962;6.196;2023-03-23T03:26:07;8.05;;;3.90;;
57443;SDS011;43289;52.962;6.196;2023-03-23T03:28:35;7.93;;;3.13;;
57443;SDS011;43289;52.962;6.196;2023-03-23T03:31:01;7.40;;;4.03;;
57443;SDS011;43289;52.962;6.196;2023-03-23T03:33:29;8.65;;;3.67;;
57443;SDS011;43289;52.962;6.196;2023-03-23T03:36:00;9.10;;;4.50;;
57443;SDS011;43289;52.962;6.196;2023-03-23T03:38:27;8.25;;;4.60;;
57443;SDS011;43289;52.962;6.196;2023-03-23T03:40:53;8.48;;;4.35;;
57443;SDS011;43289;52.962;6.196;2023-03-23T03:43:20;7.75;;;4.88;;
57443;SDS011;43289;52.962;6.196;2023-03-23T03:45:46;10.52;;;5.07;;
57443;SDS011;43289;52.962;6.196;2023-03-23T03:48:12;7.45;;;4.60;;
57443;SDS011;43289;52.962;6.196;2023-03-23T03:50:38;8.27;;;4.45;;
57443;SDS011;43289;52.962;6.196;2023-03-23T03:53:04;8.63;;;4.57;;
57443;SDS011;43289;52.962;6.196;2023-03-23T03:55:31;6.97;;;4.53;;
57443;SDS011;43289;52.962;6.196;2023-03-23T03:58:00;7.65;;;4.15;;
57443;SDS011;43289;52.962;6.196;2023-03-23T04:00:27;9.20;;;5.47;;
57443;SDS011;43289;52.962;6.196;2023-03-23T04:02:53;6.80;;;4.05;;
57443;SDS011;43289;52.962;6.196;2023-03-23T04:05:23;7.00;;;4.05;;
57443;SDS011;43289;52.962;6.196;2023-03-23T04:07:49;6.82;;;4.00;;
57443;SDS011;43289;52.962;6.196;2023-03-23T04:10:18;7.13;;;4.03;;
57443;SDS011;43289;52.962;6.196;2023-03-23T04:12:48;8.45;;;4.43;;
57443;SDS011;43289;52.962;6.196;2023-03-23T04:15:14;8.02;;;4.03;;
57443;SDS011;43289;52.962;6.196;2023-03-23T04:17:40;6.35;;;4.18;;
57443;SDS011;43289;52.962;6.196;2023-03-23T04:20:07;8.65;;;4.32;;
57443;SDS011;43289;52.962;6.196;2023-03-23T04:22:38;11.65;;;4.43;;
57443;SDS011;43289;52.962;6.196;2023-03-23T04:25:08;6.50;;;3.15;;
57443;SDS011;43289;52.962;6.196;2023-03-23T04:27:36;6.97;;;4.00;;
57443;SDS011;43289;52.962;6.196;2023-03-23T04:30:02;9.32;;;4.40;;
57443;SDS011;43289;52.962;6.196;2023-03-23T04:32:30;5.55;;;2.72;;
57443;SDS011;43289;52.962;6.196;2023-03-23T04:34:56;3.47;;;1.98;;
57443;SDS011;43289;52.962;6.196;2023-03-23T04:37:23;7.70;;;2.85;;
57443;SDS011;43289;52.962;6.196;2023-03-23T04:39:57;7.85;;;3.30;;
57443;SDS011;43289;52.962;6.196;2023-03-23T04:42:30;4.60;;;2.50;;
57443;SDS011;43289;52.962;6.196;2023-03-23T04:44:57;5.65;;;2.80;;
57443;SDS011;43289;52.962;6.196;2023-03-23T04:47:27;7.05;;;3.30;;
57443;SDS011;43289;52.962;6.196;2023-03-23T04:49:54;8.02;;;3.38;;
57443;SDS011;43289;52.962;6.196;2023-03-23T04:52:20;5.88;;;2.60;;
57443;SDS011;43289;52.962;6.196;2023-03-23T04:54:46;6.03;;;2.63;;
57443;SDS011;43289;52.962;6.196;2023-03-23T04:57:12;6.60;;;2.70;;
57443;SDS011;43289;52.962;6.196;2023-03-23T04:59:40;7.35;;;2.65;;
57443;SDS011;43289;52.962;6.196;2023-03-23T05:02:06;6.35;;;2.70;;
57443;SDS011;43289;52.962;6.196;2023-03-23T05:04:32;5.80;;;2.40;;
57443;SDS011;43289;52.962;6.196;2023-03-23T05:06:58;5.43;;;2.45;;
57443;SDS011;43289;52.962;6.196;2023-03-23T05:09:24;8.93;;;3.45;;
57443;SDS011;43289;52.962;6.196;2023-03-23T05:11:50;4.63;;;1.35;;
57443;SDS011;43289;52.962;6.196;2023-03-23T05:14:16;8.13;;;2.60;;
57443;SDS011;43289;52.962;6.196;2023-03-23T05:16:42;10.07;;;3.50;;
57443;SDS011;43289;52.962;6.196;2023-03-23T05:19:14;7.75;;;3.20;;
57443;SDS011;43289;52.962;6.196;2023-03-23T05:21:40;8.57;;;2.97;;
57443;SDS011;43289;52.962;6.196;2023-03-23T05:24:06;7.90;;;2.17;;
57443;SDS011;43289;52.962;6.196;2023-03-23T05:26:32;7.63;;;3.17;;
57443;SDS011;43289;52.962;6.196;2023-03-23T05:28:59;9.93;;;2.75;;
57443;SDS011;43289;52.962;6.196;2023-03-23T05:31:25;8.30;;;3.10;;
57443;SDS011;43289;52.962;6.196;2023-03-23T05:33:51;10.13;;;3.80;;
57443;SDS011;43289;52.962;6.196;2023-03-23T05:36:18;9.05;;;3.08;;
57443;SDS011;43289;52.962;6.196;2023-03-23T05:38:45;11.13;;;3.20;;
57443;SDS011;43289;52.962;6.196;2023-03-23T05:41:13;13.00;;;2.95;;
57443;SDS011;43289;52.962;6.196;2023-03-23T05:43:39;14.65;;;3.80;;
57443;SDS011;43289;52.962;6.196;2023-03-23T05:46:05;13.27;;;3.22;;
57443;SDS011;43289;52.962;6.196;2023-03-23T05:48:34;12.45;;;2.90;;
57443;SDS011;43289;52.962;6.196;2023-03-23T05:51:01;7.95;;;2.80;;
57443;SDS011;43289;52.962;6.196;2023-03-23T05:53:27;6.28;;;2.33;;
57443;SDS011;43289;52.962;6.196;2023-03-23T05:55:58;14.75;;;2.83;;
57443;SDS011;43289;52.962;6.196;2023-03-23T05:58:24;10.73;;;3.28;;
57443;SDS011;43289;52.962;6.196;2023-03-23T06:00:51;9.68;;;2.58;;
57443;SDS011;43289;52.962;6.196;2023-03-23T06:03:17;10.00;;;3.05;;
57443;SDS011;43289;52.962;6.196;2023-03-23T06:05:43;14.95;;;3.38;;
57443;SDS011;43289;52.962;6.196;2023-03-23T06:08:10;11.02;;;3.42;;
57443;SDS011;43289;52.962;6.196;2023-03-23T06:10:36;11.65;;;3.67;;
57443;SDS011;43289;52.962;6.196;2023-03-23T06:13:03;10.93;;;2.47;;
57443;SDS011;43289;52.962;6.196;2023-03-23T06:15:29;13.63;;;3.92;;
57443;SDS011;43289;52.962;6.196;2023-03-23T06:18:03;12.43;;;3.55;;
57443;SDS011;43289;52.962;6.196;2023-03-23T06:20:30;13.80;;;3.20;;
57443;SDS011;43289;52.962;6.196;2023-03-23T06:22:57;11.75;;;3.33;;
57443;SDS011;43289;52.962;6.196;2023-03-23T06:25:23;10.15;;;3.00;;
57443;SDS011;43289;52.962;6.196;2023-03-23T06:27:49;4.32;;;2.20;;
57443;SDS011;43289;52.962;6.196;2023-03-23T06:30:17;11.88;;;3.90;;
57443;SDS011;43289;52.962;6.196;2023-03-23T06:32:43;17.52;;;4.07;;
57443;SDS011;43289;52.962;6.196;2023-03-23T06:35:11;12.57;;;3.72;;
57443;SDS011;43289;52.962;6.196;2023-03-23T06:37:38;12.77;;;3.15;;
57443;SDS011;43289;52.962;6.196;2023-03-23T06:40:04;10.02;;;3.72;;
57443;SDS011;43289;52.962;6.196;2023-03-23T06:42:35;14.43;;;3.80;;
57443;SDS011;43289;52.962;6.196;2023-03-23T06:45:01;7.63;;;2.72;;
57443;SDS011;43289;52.962;6.196;2023-03-23T06:47:27;11.38;;;3.53;;
57443;SDS011;43289;52.962;6.196;2023-03-23T06:49:56;10.50;;;3.60;;
57443;SDS011;43289;52.962;6.196;2023-03-23T06:52:23;9.88;;;2.85;;
57443;SDS011;43289;52.962;6.196;2023-03-23T06:54:50;16.23;;;4.25;;
57443;SDS011;43289;52.962;6.196;2023-03-23T06:57:16;13.13;;;3.80;;
57443;SDS011;43289;52.962;6.196;2023-03-23T06:59:42;12.68;;;4.82;;
57443;SDS011;43289;52.962;6.196;2023-03-23T07:02:09;12.43;;;3.83;;
57443;SDS011;43289;52.962;6.196;2023-03-23T07:04:36;17.23;;;4.40;;
57443;SDS011;43289;52.962;6.196;2023-03-23T07:07:03;12.88;;;3.40;;
57443;SDS011;43289;52.962;6.196;2023-03-23T07:09:29;13.40;;;3.63;;
57443;SDS011;43289;52.962;6.196;2023-03-23T07:11:56;25.17;;;4.40;;
57443;SDS011;43289;52.962;6.196;2023-03-23T07:14:22;10.02;;;2.83;;
57443;SDS011;43289;52.962;6.196;2023-03-23T07:16:48;12.70;;;3.05;;
57443;SDS011;43289;52.962;6.196;2023-03-23T07:19:15;15.27;;;3.67;;
57443;SDS011;43289;52.962;6.196;2023-03-23T07:21:41;14.25;;;3.85;;
57443;SDS011;43289;52.962;6.196;2023-03-23T07:24:11;16.40;;;4.97;;
57443;SDS011;43289;52.962;6.196;2023-03-23T07:26:41;17.77;;;4.40;;
57443;SDS011;43289;52.962;6.196;2023-03-23T07:29:08;12.18;;;4.38;;
57443;SDS011;43289;52.962;6.196;2023-03-23T07:31:34;18.50;;;3.58;;
57443;SDS011;43289;52.962;6.196;2023-03-23T07:34:01;13.27;;;3.50;;
57443;SDS011;43289;52.962;6.196;2023-03-23T07:36:28;11.43;;;3.70;;
57443;SDS011;43289;52.962;6.196;2023-03-23T07:38:54;13.77;;;3.05;;
57443;SDS011;43289;52.962;6.196;2023-03-23T07:41:21;18.10;;;5.22;;
57443;SDS011;43289;52.962;6.196;2023-03-23T07:43:47;15.68;;;4.32;;
57443;SDS011;43289;52.962;6.196;2023-03-23T07:46:13;18.90;;;4.82;;
57443;SDS011;43289;52.962;6.196;2023-03-23T07:48:39;9.35;;;3.25;;
57443;SDS011;43289;52.962;6.196;2023-03-23T07:51:05;12.00;;;4.07;;
57443;SDS011;43289;52.962;6.196;2023-03-23T07:53:32;10.73;;;4.43;;
57443;SDS011;43289;52.962;6.196;2023-03-23T07:55:58;17.58;;;3.78;;
57443;SDS011;43289;52.962;6.196;2023-03-23T07:58:24;19.77;;;4.45;;
57443;SDS011;43289;52.962;6.196;2023-03-23T08:00:51;23.92;;;5.50;;
57443;SDS011;43289;52.962;6.196;2023-03-23T08:03:17;17.55;;;4.43;;
57443;SDS011;43289;52.962;6.196;2023-03-23T08:05:44;15.02;;;4.47;;
57443;SDS011;43289;52.962;6.196;2023-03-23T08:08:10;18.02;;;4.65;;
57443;SDS011;43289;52.962;6.196;2023-03-23T08:10:37;18.20;;;4.60;;
57443;SDS011;43289;52.962;6.196;2023-03-23T08:13:03;16.85;;;5.00;;
57443;SDS011;43289;52.962;6.196;2023-03-23T08:15:31;15.45;;;4.35;;
57443;SDS011;43289;52.962;6.196;2023-03-23T08:17:58;22.80;;;4.95;;
57443;SDS011;43289;52.962;6.196;2023-03-23T08:20:25;14.63;;;3.35;;
57443;SDS011;43289;52.962;6.196;2023-03-23T08:22:52;27.65;;;6.05;;
57443;SDS011;43289;52.962;6.196;2023-03-23T08:25:20;23.98;;;6.47;;
57443;SDS011;43289;52.962;6.196;2023-03-23T08:27:46;24.58;;;7.43;;
57443;SDS011;43289;52.962;6.196;2023-03-23T08:30:14;21.83;;;5.53;;
57443;SDS011;43289;52.962;6.196;2023-03-23T08:32:40;24.55;;;5.32;;
57443;SDS011;43289;52.962;6.196;2023-03-23T08:35:07;16.55;;;5.10;;
57443;SDS011;43289;52.962;6.196;2023-03-23T08:37:34;21.50;;;5.25;;
57443;SDS011;43289;52.962;6.196;2023-03-23T08:40:00;15.93;;;4.15;;
57443;SDS011;43289;52.962;6.196;2023-03-23T08:42:32;22.02;;;6.18;;
57443;SDS011;43289;52.962;6.196;2023-03-23T08:44:58;16.45;;;4.45;;
57443;SDS011;43289;52.962;6.196;2023-03-23T08:47:24;17.33;;;5.18;;
57443;SDS011;43289;52.962;6.196;2023-03-23T08:49:50;18.85;;;4.72;;
57443;SDS011;43289;52.962;6.196;2023-03-23T08:52:18;16.27;;;5.05;;
57443;SDS011;43289;52.962;6.196;2023-03-23T08:54:45;22.85;;;6.53;;
57443;SDS011;43289;52.962;6.196;2023-03-23T08:57:12;25.38;;;4.65;;
57443;SDS011;43289;52.962;6.196;2023-03-23T08:59:39;13.23;;;5.38;;
57443;SDS011;43289;52.962;6.196;2023-03-23T09:02:06;13.98;;;4.05;;
57443;SDS011;43289;52.962;6.196;2023-03-23T09:04:34;19.45;;;4.85;;
57443;SDS011;43289;52.962;6.196;2023-03-23T09:07:00;18.02;;;4.97;;
57443;SDS011;43289;52.962;6.196;2023-03-23T09:09:26;20.98;;;5.38;;
57443;SDS011;43289;52.962;6.196;2023-03-23T09:11:52;15.75;;;4.72;;
57443;SDS011;43289;52.962;6.196;2023-03-23T09:14:18;25.30;;;4.53;;
57443;SDS011;43289;52.962;6.196;2023-03-23T09:16:44;20.20;;;4.43;;
57443;SDS011;43289;52.962;6.196;2023-03-23T09:19:11;19.70;;;4.78;;
57443;SDS011;43289;52.962;6.196;2023-03-23T09:21:37;21.70;;;5.97;;
57443;SDS011;43289;52.962;6.196;2023-03-23T09:24:04;20.20;;;4.35;;
57443;SDS011;43289;52.962;6.196;2023-03-23T09:26:30;14.43;;;4.05;;
57443;SDS011;43289;52.962;6.196;2023-03-23T09:28:57;19.77;;;5.68;;
57443;SDS011;43289;52.962;6.196;2023-03-23T09:31:23;20.50;;;4.45;;
57443;SDS011;43289;52.962;6.196;2023-03-23T09:33:51;17.92;;;4.38;;
57443;SDS011;43289;52.962;6.196;2023-03-23T09:36:21;18.73;;;5.20;;
57443;SDS011;43289;52.962;6.196;2023-03-23T09:38:48;13.48;;;3.70;;
57443;SDS011;43289;52.962;6.196;2023-03-23T09:46:19;14.20;;;4.53;;
57443;SDS011;43289;52.962;6.196;2023-03-23T09:48:55;21.48;;;4.82;;
57443;SDS011;43289;52.962;6.196;2023-03-23T09:51:24;20.50;;;5.18;;
57443;SDS011;43289;52.962;6.196;2023-03-23T09:53:54;17.33;;;4.72;;
57443;SDS011;43289;52.962;6.196;2023-03-23T09:56:21;14.35;;;4.63;;
57443;SDS011;43289;52.962;6.196;2023-03-23T10:01:45;11.27;;;3.42;;
57443;SDS011;43289;52.962;6.196;2023-03-23T10:06:38;13.77;;;4.45;;
57443;SDS011;43289;52.962;6.196;2023-03-23T10:09:05;16.52;;;4.78;;
57443;SDS011;43289;52.962;6.196;2023-03-23T10:16:55;15.80;;;3.90;;
57443;SDS011;43289;52.962;6.196;2023-03-23T10:19:27;12.98;;;4.00;;
57443;SDS011;43289;52.962;6.196;2023-03-23T10:22:03;4.82;;;2.13;;
57443;SDS011;43289;52.962;6.196;2023-03-23T10:24:50;19.42;;;4.50;;
57443;SDS011;43289;52.962;6.196;2023-03-23T10:27:26;18.58;;;4.03;;
57443;SDS011;43289;52.962;6.196;2023-03-23T10:29:55;11.27;;;3.85;;
57443;SDS011;43289;52.962;6.196;2023-03-23T10:32:36;18.48;;;4.20;;
57443;SDS011;43289;52.962;6.196;2023-03-23T10:35:04;13.05;;;3.97;;
57443;SDS011;43289;52.962;6.196;2023-03-23T10:37:34;8.70;;;3.20;;
57443;SDS011;43289;52.962;6.196;2023-03-23T10:40:03;15.25;;;3.65;;
57443;SDS011;43289;52.962;6.196;2023-03-23T10:42:35;12.68;;;4.70;;
57443;SDS011;43289;52.962;6.196;2023-03-23T10:45:19;12.93;;;4.60;;
57443;SDS011;43289;52.962;6.196;2023-03-23T10:47:49;10.00;;;3.50;;
57443;SDS011;43289;52.962;6.196;2023-03-23T10:50:17;14.30;;;3.67;;
57443;SDS011;43289;52.962;6.196;2023-03-23T10:52:44;12.52;;;3.75;;
57443;SDS011;43289;52.962;6.196;2023-03-23T10:55:15;14.00;;;3.92;;
57443;SDS011;43289;52.962;6.196;2023-03-23T10:57:42;10.68;;;2.88;;
57443;SDS011;43289;52.962;6.196;2023-03-23T11:00:20;11.35;;;3.05;;
57443;SDS011;43289;52.962;6.196;2023-03-23T11:02:47;10.07;;;2.90;;
57443;SDS011;43289;52.962;6.196;2023-03-23T11:05:24;12.70;;;3.75;;
57443;SDS011;43289;52.962;6.196;2023-03-23T11:07:56;14.20;;;3.75;;
57443;SDS011;43289;52.962;6.196;2023-03-23T11:10:26;16.48;;;4.78;;
57443;SDS011;43289;52.962;6.196;2023-03-23T11:12:56;11.13;;;4.63;;
57443;SDS011;43289;52.962;6.196;2023-03-23T11:17:59;9.80;;;3.88;;
57443;SDS011;43289;52.962;6.196;2023-03-23T11:20:27;7.95;;;2.75;;
57443;SDS011;43289;52.962;6.196;2023-03-23T11:22:54;13.98;;;3.42;;
57443;SDS011;43289;52.962;6.196;2023-03-23T11:25:21;15.30;;;3.10;;
57443;SDS011;43289;52.962;6.196;2023-03-23T11:27:47;11.65;;;3.45;;
57443;SDS011;43289;52.962;6.196;2023-03-23T11:30:25;11.95;;;2.08;;
57443;SDS011;43289;52.962;6.196;2023-03-23T11:32:52;10.35;;;2.97;;
57443;SDS011;43289;52.962;6.196;2023-03-23T11:35:23;14.30;;;3.17;;
57443;SDS011;43289;52.962;6.196;2023-03-23T11:37:52;12.77;;;3.50;;
57443;SDS011;43289;52.962;6.196;2023-03-23T11:40:21;8.77;;;2.95;;
57443;SDS011;43289;52.962;6.196;2023-03-23T11:45:20;7.72;;;2.53;;
57443;SDS011;43289;52.962;6.196;2023-03-23T11:52:44;12.23;;;4.35;;
57443;SDS011;43289;52.962;6.196;2023-03-23T11:55:14;8.50;;;3.33;;
57443;SDS011;43289;52.962;6.196;2023-03-23T11:57:42;9.93;;;3.25;;
57443;SDS011;43289;52.962;6.196;2023-03-23T12:00:15;13.75;;;3.08;;
57443;SDS011;43289;52.962;6.196;2023-03-23T12:02:50;8.95;;;2.60;;
57443;SDS011;43289;52.962;6.196;2023-03-23T12:05:29;14.23;;;4.05;;
57443;SDS011;43289;52.962;6.196;2023-03-23T12:08:18;12.57;;;3.47;;
57443;SDS011;43289;52.962;6.196;2023-03-23T12:18:40;11.80;;;3.67;;
57443;SDS011;43289;52.962;6.196;2023-03-23T12:21:21;12.38;;;2.88;;
57443;SDS011;43289;52.962;6.196;2023-03-23T12:26:28;8.88;;;3.03;;
57443;SDS011;43289;52.962;6.196;2023-03-23T12:29:09;8.70;;;2.83;;
57443;SDS011;43289;52.962;6.196;2023-03-23T12:34:15;5.65;;;1.83;;
57443;SDS011;43289;52.962;6.196;2023-03-23T12:44:46;11.03;;;3.23;;
57443;SDS011;43289;52.962;6.196;2023-03-23T12:47:18;7.90;;;2.50;;
57443;SDS011;43289;52.962;6.196;2023-03-23T12:50:05;10.83;;;2.93;;
57443;SDS011;43289;52.962;6.196;2023-03-23T12:55:15;12.98;;;2.95;;
57443;SDS011;43289;52.962;6.196;2023-03-23T12:57:45;10.80;;;2.97;;
57443;SDS011;43289;52.962;6.196;2023-03-23T13:00:16;9.60;;;2.65;;
57443;SDS011;43289;52.962;6.196;2023-03-23T13:03:02;12.25;;;4.00;;
57443;SDS011;43289;52.962;6.196;2023-03-23T13:05:35;11.52;;;2.70;;
57443;SDS011;43289;52.962;6.196;2023-03-23T13:08:04;9.70;;;2.90;;
57443;SDS011;43289;52.962;6.196;2023-03-23T13:10:42;11.68;;;2.97;;
57443;SDS011;43289;52.962;6.196;2023-03-23T13:13:14;10.27;;;3.05;;
57443;SDS011;43289;52.962;6.196;2023-03-23T13:15:44;9.68;;;3.13;;
57443;SDS011;43289;52.962;6.196;2023-03-23T13:18:31;11.85;;;3.53;;
57443;SDS011;43289;52.962;6.196;2023-03-23T13:23:50;12.32;;;3.88;;
57443;SDS011;43289;52.962;6.196;2023-03-23T13:26:20;12.68;;;3.17;;
57443;SDS011;43289;52.962;6.196;2023-03-23T13:31:32;9.80;;;3.40;;
57443;SDS011;43289;52.962;6.196;2023-03-23T13:34:14;9.75;;;3.33;;
57443;SDS011;43289;52.962;6.196;2023-03-23T13:36:42;16.58;;;4.65;;
57443;SDS011;43289;52.962;6.196;2023-03-23T13:39:19;12.30;;;3.80;;
57443;SDS011;43289;52.962;6.196;2023-03-23T13:41:54;12.45;;;3.10;;
57443;SDS011;43289;52.962;6.196;2023-03-23T13:44:25;8.27;;;3.25;;
57443;SDS011;43289;52.962;6.196;2023-03-23T13:46:56;10.77;;;3.13;;
57443;SDS011;43289;52.962;6.196;2023-03-23T13:49:23;10.02;;;3.55;;
57443;SDS011;43289;52.962;6.196;2023-03-23T13:57:02;11.50;;;2.70;;
57443;SDS011;43289;52.962;6.196;2023-03-23T13:59:30;13.45;;;3.50;;
57443;SDS011;43289;52.962;6.196;2023-03-23T14:01:57;9.73;;;2.78;;
57443;SDS011;43289;52.962;6.196;2023-03-23T14:07:09;10.45;;;3.15;;
57443;SDS011;43289;52.962;6.196;2023-03-23T14:09:39;11.15;;;3.45;;
57443;SDS011;43289;52.962;6.196;2023-03-23T14:12:13;9.25;;;2.92;;
57443;SDS011;43289;52.962;6.196;2023-03-23T14:14:41;7.50;;;2.33;;
57443;SDS011;43289;52.962;6.196;2023-03-23T14:17:11;16.08;;;3.63;;
57443;SDS011;43289;52.962;6.196;2023-03-23T14:19:38;10.70;;;3.40;;
57443;SDS011;43289;52.962;6.196;2023-03-23T14:22:15;8.25;;;2.50;;
57443;SDS011;43289;52.962;6.196;2023-03-23T14:24:42;9.63;;;2.95;;
57443;SDS011;43289;52.962;6.196;2023-03-23T14:27:16;9.65;;;2.85;;
57443;SDS011;43289;52.962;6.196;2023-03-23T14:29:42;10.65;;;3.85;;
57443;SDS011;43289;52.962;6.196;2023-03-23T14:32:16;9.65;;;2.50;;
57443;SDS011;43289;52.962;6.196;2023-03-23T14:34:43;6.80;;;2.88;;
57443;SDS011;43289;52.962;6.196;2023-03-23T14:37:13;6.70;;;2.25;;
57443;SDS011;43289;52.962;6.196;2023-03-23T14:39:43;8.65;;;2.63;;
57443;SDS011;43289;52.962;6.196;2023-03-23T14:42:11;8.65;;;2.20;;
57443;SDS011;43289;52.962;6.196;2023-03-23T14:44:43;8.75;;;2.92;;
57443;SDS011;43289;52.962;6.196;2023-03-23T14:47:18;7.75;;;2.38;;
57443;SDS011;43289;52.962;6.196;2023-03-23T14:49:45;7.65;;;2.20;;
57443;SDS011;43289;52.962;6.196;2023-03-23T14:52:12;7.13;;;2.47;;
57443;SDS011;43289;52.962;6.196;2023-03-23T14:54:38;8.57;;;2.38;;
57443;SDS011;43289;52.962;6.196;2023-03-23T14:57:14;9.43;;;2.63;;
57443;SDS011;43289;52.962;6.196;2023-03-23T14:59:44;8.57;;;2.33;;
57443;SDS011;43289;52.962;6.196;2023-03-23T15:02:24;8.82;;;2.28;;
57443;SDS011;43289;52.962;6.196;2023-03-23T15:04:56;6.40;;;2.15;;
57443;SDS011;43289;52.962;6.196;2023-03-23T15:07:24;6.78;;;1.52;;
57443;SDS011;43289;52.962;6.196;2023-03-23T15:09:51;6.55;;;2.30;;
57443;SDS011;43289;52.962;6.196;2023-03-23T15:12:24;8.55;;;2.40;;
57443;SDS011;43289;52.962;6.196;2023-03-23T15:14:55;7.88;;;2.75;;
57443;SDS011;43289;52.962;6.196;2023-03-23T15:17:22;6.65;;;2.38;;
57443;SDS011;43289;52.962;6.196;2023-03-23T15:19:49;11.30;;;2.63;;
57443;SDS011;43289;52.962;6.196;2023-03-23T15:24:41;7.43;;;2.30;;
57443;SDS011;43289;52.962;6.196;2023-03-23T15:27:12;9.40;;;2.40;;
57443;SDS011;43289;52.962;6.196;2023-03-23T15:29:55;8.63;;;2.60;;
57443;SDS011;43289;52.962;6.196;2023-03-23T15:32:29;8.30;;;2.70;;
57443;SDS011;43289;52.962;6.196;2023-03-23T15:34:56;10.27;;;2.97;;
57443;SDS011;43289;52.962;6.196;2023-03-23T15:37:30;10.02;;;3.03;;
57443;SDS011;43289;52.962;6.196;2023-03-23T15:39:57;13.32;;;3.22;;
57443;SDS011;43289;52.962;6.196;2023-03-23T15:42:28;8.63;;;2.70;;
57443;SDS011;43289;52.962;6.196;2023-03-23T15:45:02;9.20;;;3.13;;
57443;SDS011;43289;52.962;6.196;2023-03-23T15:50:15;12.77;;;3.70;;
57443;SDS011;43289;52.962;6.196;2023-03-23T15:52:41;10.63;;;2.50;;
57443;SDS011;43289;52.962;6.196;2023-03-23T15:57:50;10.07;;;3.20;;
57443;SDS011;43289;52.962;6.196;2023-03-23T16:00:17;9.30;;;2.97;;
57443;SDS011;43289;52.962;6.196;2023-03-23T16:02:44;11.45;;;3.47;;
57443;SDS011;43289;52.962;6.196;2023-03-23T16:05:11;16.08;;;3.03;;
57443;SDS011;43289;52.962;6.196;2023-03-23T16:07:37;14.75;;;3.92;;
57443;SDS011;43289;52.962;6.196;2023-03-23T16:10:04;10.57;;;2.90;;
57443;SDS011;43289;52.962;6.196;2023-03-23T16:12:31;9.45;;;2.63;;
57443;SDS011;43289;52.962;6.196;2023-03-23T16:14:57;11.40;;;3.72;;
57443;SDS011;43289;52.962;6.196;2023-03-23T16:17:23;10.65;;;2.97;;
57443;SDS011;43289;52.962;6.196;2023-03-23T16:19:49;16.05;;;3.17;;
57443;SDS011;43289;52.962;6.196;2023-03-23T16:22:15;15.20;;;3.45;;
57443;SDS011;43289;52.962;6.196;2023-03-23T16:24:41;12.93;;;3.38;;
57443;SDS011;43289;52.962;6.196;2023-03-23T16:27:11;10.90;;;3.28;;